createdAt,value
2023-04-16T00:00:09.111Z,2.32
2023-04-16T00:01:09.161Z,2.31
2023-04-16T00:02:09.240Z,2.31
2023-04-16T00:03:09.334Z,2.26
2023-04-16T00:04:09.375Z,2.26
2023-04-16T00:05:09.385Z,2.26
2023-04-16T00:06:09.255Z,2.31
2023-04-16T00:07:09.315Z,2.25
2023-04-16T00:08:09.310Z,2.24
2023-04-16T00:09:09.521Z,2.25
2023-04-16T00:10:09.341Z,2.28
2023-04-16T00:11:09.384Z,2.27
2023-04-16T00:12:09.401Z,2.31
2023-04-16T00:13:09.429Z,2.27
2023-04-16T00:14:09.419Z,2.27
2023-04-16T00:15:09.411Z,2.27
2023-04-16T00:16:09.915Z,2.25
2023-04-16T00:17:09.506Z,2.29
2023-04-16T00:18:09.435Z,2.30
2023-04-16T00:19:09.945Z,2.33
2023-04-16T00:20:09.434Z,2.29
2023-04-16T00:21:09.438Z,2.24
2023-04-16T00:22:09.420Z,2.29
2023-04-16T00:23:09.906Z,2.20
2023-04-16T00:24:09.418Z,2.20
2023-04-16T00:25:09.420Z,2.24
2023-04-16T00:26:09.420Z,2.16
2023-04-16T00:27:09.417Z,2.13
2023-04-16T00:28:11.104Z,2.17
2023-04-16T00:29:09.685Z,2.10
2023-04-16T00:30:09.428Z,2.15
2023-04-16T00:31:09.527Z,2.14
2023-04-16T00:32:09.429Z,2.16
2023-04-16T00:33:09.426Z,2.20
2023-04-16T00:34:09.438Z,2.17
2023-04-16T00:35:09.462Z,2.19
2023-04-16T00:36:09.520Z,2.19
2023-04-16T00:37:09.505Z,2.12
2023-04-16T00:38:09.543Z,2.15
2023-04-16T00:39:09.761Z,2.22
2023-04-16T00:40:09.581Z,2.17
2023-04-16T00:41:09.607Z,2.19
2023-04-16T00:42:09.657Z,2.16
2023-04-16T00:43:09.673Z,2.14
2023-04-16T00:44:09.709Z,2.21
2023-04-16T00:45:09.723Z,2.15
2023-04-16T00:46:09.802Z,2.13
2023-04-16T00:47:09.799Z,2.06
2023-04-16T00:48:09.835Z,2.11
2023-04-16T00:49:09.968Z,2.07
2023-04-16T00:50:09.903Z,2.04
2023-04-16T00:51:09.941Z,2.07
2023-04-16T00:52:09.962Z,2.07
2023-04-16T00:53:09.992Z,2.10
2023-04-16T00:54:10.027Z,2.07
2023-04-16T00:55:10.050Z,2.10
2023-04-16T00:56:10.066Z,2.11
2023-04-16T00:57:10.149Z,2.09
2023-04-16T00:58:10.109Z,2.11
2023-04-16T00:59:10.580Z,2.11
2023-04-16T01:00:10.162Z,2.12
2023-04-16T01:01:10.216Z,2.10
2023-04-16T01:02:10.369Z,2.10
2023-04-16T01:03:10.395Z,2.03
2023-04-16T01:04:10.381Z,2.04
2023-04-16T01:05:10.341Z,2.04
2023-04-16T01:06:10.330Z,2.06
2023-04-16T01:07:10.424Z,2.02
2023-04-16T01:08:10.368Z,2.03
2023-04-16T01:09:10.549Z,1.97
2023-04-16T01:10:10.384Z,1.97
2023-04-16T01:11:10.409Z,1.94
2023-04-16T01:12:10.443Z,1.93
2023-04-16T01:13:10.456Z,1.91
2023-04-16T01:14:10.481Z,1.85
2023-04-16T01:15:10.496Z,1.89
2023-04-16T01:16:10.573Z,1.88
2023-04-16T01:17:10.544Z,1.89
2023-04-16T01:18:10.581Z,1.88
2023-04-16T01:19:10.815Z,1.88
2023-04-16T01:20:10.609Z,1.84
2023-04-16T01:21:10.620Z,1.95
2023-04-16T01:22:10.645Z,1.90
2023-04-16T01:23:10.667Z,1.88
2023-04-16T01:24:10.693Z,1.90
2023-04-16T01:25:10.736Z,1.85
2023-04-16T01:26:10.736Z,1.88
2023-04-16T01:27:10.818Z,1.86
2023-04-16T01:28:10.777Z,1.90
2023-04-16T01:29:11.043Z,1.89
2023-04-16T01:30:10.841Z,1.88
2023-04-16T01:31:10.910Z,1.93
2023-04-16T01:32:10.886Z,1.84
2023-04-16T01:33:10.893Z,1.85
2023-04-16T01:34:10.924Z,1.86
2023-04-16T01:35:10.962Z,1.94
2023-04-16T01:36:11.003Z,1.88
2023-04-16T01:37:11.012Z,1.92
2023-04-16T01:38:11.032Z,1.90
2023-04-16T01:39:11.203Z,1.85
2023-04-16T01:40:11.069Z,1.88
2023-04-16T01:41:11.112Z,1.82
2023-04-16T01:42:11.174Z,1.77
2023-04-16T01:43:11.239Z,1.86
2023-04-16T01:44:11.283Z,1.85
2023-04-16T01:45:11.320Z,1.82
2023-04-16T01:46:11.377Z,1.83
2023-04-16T01:47:11.377Z,1.83
2023-04-16T01:48:11.395Z,1.86
2023-04-16T01:49:11.730Z,1.88
2023-04-16T01:50:11.481Z,1.88
2023-04-16T01:51:11.474Z,1.85
2023-04-16T01:52:11.502Z,1.81
2023-04-16T01:53:11.507Z,1.87
2023-04-16T01:54:11.557Z,1.85
2023-04-16T01:55:11.553Z,1.80
2023-04-16T01:56:11.576Z,1.84
2023-04-16T01:57:11.669Z,1.85
2023-04-16T01:58:11.628Z,1.91
2023-04-16T01:59:11.775Z,1.90
2023-04-16T02:00:11.662Z,1.89
2023-04-16T02:01:11.763Z,1.92
2023-04-16T02:02:11.908Z,1.91
2023-04-16T02:03:11.938Z,1.84
2023-04-16T02:04:11.797Z,1.88
2023-04-16T02:05:11.766Z,1.92
2023-04-16T02:06:11.793Z,1.92
2023-04-16T02:07:11.843Z,1.88
2023-04-16T02:08:11.842Z,1.90
2023-04-16T02:09:11.980Z,1.88
2023-04-16T02:10:11.902Z,1.88
2023-04-16T02:11:11.879Z,1.88
2023-04-16T02:12:11.880Z,1.88
2023-04-16T02:13:11.865Z,1.82
2023-04-16T02:14:11.874Z,1.88
2023-04-16T02:15:11.874Z,1.87
2023-04-16T02:16:11.886Z,1.88
2023-04-16T02:17:11.842Z,1.95
2023-04-16T02:18:11.852Z,1.97
2023-04-16T02:19:11.851Z,1.92
2023-04-16T02:20:11.838Z,1.96
2023-04-16T02:21:11.856Z,1.98
2023-04-16T02:22:11.821Z,1.91
2023-04-16T02:23:11.857Z,1.96
2023-04-16T02:24:11.819Z,1.95
2023-04-16T02:25:11.821Z,2.03
2023-04-16T02:26:11.793Z,2.01
2023-04-16T02:27:11.835Z,2.03
2023-04-16T02:28:11.869Z,2.07
2023-04-16T02:29:11.906Z,2.07
2023-04-16T02:30:11.771Z,2.03
2023-04-16T02:31:11.769Z,2.06
2023-04-16T02:32:11.883Z,2.06
2023-04-16T02:33:11.826Z,2.08
2023-04-16T02:34:11.810Z,2.08
2023-04-16T02:35:11.741Z,2.09
2023-04-16T02:36:11.888Z,2.08
2023-04-16T02:37:11.736Z,2.08
2023-04-16T02:38:11.807Z,2.09
2023-04-16T02:39:11.791Z,2.13
2023-04-16T02:40:11.829Z,2.15
2023-04-16T02:41:11.726Z,2.12
2023-04-16T02:42:11.805Z,2.11
2023-04-16T02:43:11.751Z,2.10
2023-04-16T02:44:11.817Z,2.04
2023-04-16T02:45:11.787Z,2.08
2023-04-16T02:46:11.826Z,2.15
2023-04-16T02:47:11.778Z,2.08
2023-04-16T02:48:11.736Z,2.10
2023-04-16T02:49:11.899Z,2.10
2023-04-16T02:50:11.668Z,2.11
2023-04-16T02:51:11.657Z,2.06
2023-04-16T02:52:12.810Z,2.04
2023-04-16T02:53:11.634Z,2.10
2023-04-16T02:54:11.637Z,2.10
2023-04-16T02:55:11.639Z,2.10
2023-04-16T02:56:11.611Z,2.09
2023-04-16T02:57:11.608Z,2.15
2023-04-16T02:58:11.607Z,2.15
2023-04-16T02:59:11.691Z,2.15
2023-04-16T03:00:11.585Z,2.12
2023-04-16T03:01:11.623Z,2.09
2023-04-16T03:02:11.628Z,2.13
2023-04-16T03:03:11.584Z,2.13
2023-04-16T03:04:11.639Z,2.13
2023-04-16T03:05:11.587Z,2.14
2023-04-16T03:06:11.556Z,2.17
2023-04-16T03:07:11.553Z,2.15
2023-04-16T03:08:11.550Z,2.14
2023-04-16T03:09:11.781Z,2.18
2023-04-16T03:10:11.547Z,2.19
2023-04-16T03:11:11.556Z,2.21
2023-04-16T03:12:11.558Z,2.16
2023-04-16T03:13:11.567Z,2.19
2023-04-16T03:14:11.530Z,2.20
2023-04-16T03:15:11.529Z,2.12
2023-04-16T03:16:11.614Z,2.14
2023-04-16T03:17:11.525Z,2.14
2023-04-16T03:18:11.528Z,2.15
2023-04-16T03:19:11.767Z,2.14
2023-04-16T03:20:11.586Z,2.19
2023-04-16T03:21:11.614Z,2.19
2023-04-16T03:22:11.629Z,2.19
2023-04-16T03:23:11.687Z,2.25
2023-04-16T03:24:11.686Z,2.24
2023-04-16T03:25:11.751Z,2.29
2023-04-16T03:26:11.817Z,2.29
2023-04-16T03:27:11.767Z,2.23
2023-04-16T03:28:11.938Z,2.31
2023-04-16T03:29:11.858Z,2.28
2023-04-16T03:30:11.834Z,2.26
2023-04-16T03:31:11.906Z,2.29
2023-04-16T03:32:11.862Z,2.35
2023-04-16T03:33:11.900Z,2.37
2023-04-16T03:34:11.935Z,2.35
2023-04-16T03:35:11.961Z,2.41
2023-04-16T03:36:11.966Z,2.39
2023-04-16T03:37:12.095Z,2.39
2023-04-16T03:38:11.989Z,2.37
2023-04-16T03:39:12.030Z,2.39
2023-04-16T03:40:11.958Z,2.38
2023-04-16T03:41:11.934Z,2.40
2023-04-16T03:42:11.939Z,2.46
2023-04-16T03:43:11.928Z,2.49
2023-04-16T03:44:11.921Z,2.37
2023-04-16T03:45:11.911Z,2.55
2023-04-16T03:46:11.948Z,2.48
2023-04-16T03:47:11.924Z,2.49
2023-04-16T03:48:11.897Z,2.39
2023-04-16T03:49:12.200Z,2.41
2023-04-16T03:50:11.888Z,2.43
2023-04-16T03:51:11.872Z,2.48
2023-04-16T03:52:11.863Z,2.44
2023-04-16T03:53:11.936Z,2.41
2023-04-16T03:54:11.898Z,2.36
2023-04-16T03:55:11.925Z,2.40
2023-04-16T03:56:11.965Z,2.32
2023-04-16T03:57:11.985Z,2.39
2023-04-16T03:58:12.024Z,2.38
2023-04-16T03:59:12.114Z,2.39
2023-04-16T04:00:12.095Z,2.32
2023-04-16T04:01:12.122Z,2.37
2023-04-16T04:02:12.223Z,2.38
2023-04-16T04:03:12.329Z,2.41
2023-04-16T04:04:12.230Z,2.42
2023-04-16T04:05:12.176Z,2.42
2023-04-16T04:06:12.278Z,2.35
2023-04-16T04:07:12.235Z,2.39
2023-04-16T04:08:12.263Z,2.38
2023-04-16T04:09:12.271Z,2.34
2023-04-16T04:10:12.318Z,2.32
2023-04-16T04:11:12.337Z,2.34
2023-04-16T04:12:12.354Z,2.33
2023-04-16T04:13:12.376Z,2.37
2023-04-16T04:14:12.397Z,2.35
2023-04-16T04:15:12.417Z,2.38
2023-04-16T04:16:12.490Z,2.38
2023-04-16T04:17:12.468Z,2.33
2023-04-16T04:18:12.461Z,2.34
2023-04-16T04:19:12.468Z,2.34
2023-04-16T04:20:12.512Z,2.37
2023-04-16T04:21:12.460Z,2.38
2023-04-16T04:22:12.460Z,2.48
2023-04-16T04:23:12.464Z,2.39
2023-04-16T04:24:12.465Z,2.40
2023-04-16T04:25:12.464Z,2.44
2023-04-16T04:26:12.511Z,2.45
2023-04-16T04:27:12.469Z,2.47
2023-04-16T04:28:12.470Z,2.44
2023-04-16T04:29:12.466Z,2.37
2023-04-16T04:30:12.472Z,2.36
2023-04-16T04:31:12.522Z,2.42
2023-04-16T04:32:12.480Z,2.36
2023-04-16T04:33:12.479Z,2.31
2023-04-16T04:34:12.475Z,2.32
2023-04-16T04:35:12.478Z,2.33
2023-04-16T04:36:12.484Z,2.33
2023-04-16T04:37:12.483Z,2.37
2023-04-16T04:38:14.883Z,2.40
2023-04-16T04:39:12.481Z,2.32
2023-04-16T04:40:12.468Z,2.32
2023-04-16T04:41:12.454Z,2.36
2023-04-16T04:42:12.461Z,2.36
2023-04-16T04:43:12.464Z,2.43
2023-04-16T04:44:12.436Z,2.49
2023-04-16T04:45:12.435Z,2.45
2023-04-16T04:46:12.498Z,2.44
2023-04-16T04:47:12.417Z,2.38
2023-04-16T04:48:12.421Z,2.38
2023-04-16T04:49:12.425Z,2.35
2023-04-16T04:50:12.412Z,2.36
2023-04-16T04:51:12.413Z,2.39
2023-04-16T04:52:12.407Z,2.38
2023-04-16T04:53:12.405Z,2.34
2023-04-16T04:54:12.412Z,2.32
2023-04-16T04:55:12.419Z,2.24
2023-04-16T04:56:13.196Z,2.19
2023-04-16T04:57:12.388Z,2.15
2023-04-16T04:58:12.388Z,2.19
2023-04-16T04:59:12.410Z,2.20
2023-04-16T05:00:12.383Z,2.24
2023-04-16T05:01:12.445Z,2.28
2023-04-16T05:02:12.425Z,2.20
2023-04-16T05:03:12.480Z,2.18
2023-04-16T05:04:12.418Z,2.25
2023-04-16T05:05:12.374Z,2.25
2023-04-16T05:06:12.357Z,2.22
2023-04-16T05:07:12.361Z,2.20
2023-04-16T05:08:12.355Z,2.20
2023-04-16T05:09:12.360Z,2.18
2023-04-16T05:10:12.340Z,2.21
2023-04-16T05:11:12.347Z,2.23
2023-04-16T05:12:12.322Z,2.13
2023-04-16T05:13:12.325Z,2.23
2023-04-16T05:14:12.339Z,2.27
2023-04-16T05:15:12.318Z,2.23
2023-04-16T05:16:12.334Z,2.26
2023-04-16T05:17:12.303Z,2.26
2023-04-16T05:18:12.312Z,2.22
2023-04-16T05:19:12.430Z,2.19
2023-04-16T05:20:12.289Z,2.27
2023-04-16T05:21:12.271Z,2.28
2023-04-16T05:22:12.329Z,2.24
2023-04-16T05:23:12.265Z,2.31
2023-04-16T05:24:14.395Z,2.32
2023-04-16T05:25:12.274Z,2.29
2023-04-16T05:26:12.299Z,2.31
2023-04-16T05:27:12.258Z,2.32
2023-04-16T05:28:12.254Z,2.34
2023-04-16T05:29:12.411Z,2.37
2023-04-16T05:30:12.254Z,2.40
2023-04-16T05:31:12.289Z,2.36
2023-04-16T05:32:12.258Z,2.37
2023-04-16T05:33:12.265Z,2.34
2023-04-16T05:34:12.269Z,2.38
2023-04-16T05:35:12.267Z,2.34
2023-04-16T05:36:12.328Z,2.39
2023-04-16T05:37:12.264Z,2.40
2023-04-16T05:38:12.304Z,2.32
2023-04-16T05:39:12.304Z,2.38
2023-04-16T05:40:12.304Z,2.37
2023-04-16T05:41:12.245Z,2.37
2023-04-16T05:42:12.223Z,2.44
2023-04-16T05:43:12.206Z,2.40
2023-04-16T05:44:12.278Z,2.50
2023-04-16T05:45:12.273Z,2.46
2023-04-16T05:46:12.366Z,2.46
2023-04-16T05:47:12.240Z,2.53
2023-04-16T05:48:12.156Z,2.52
2023-04-16T05:49:12.265Z,2.61
2023-04-16T05:50:12.244Z,2.62
2023-04-16T05:51:12.180Z,2.71
2023-04-16T05:52:12.130Z,2.73
2023-04-16T05:53:12.136Z,2.74
2023-04-16T05:54:12.124Z,2.74
2023-04-16T05:55:12.158Z,2.74
2023-04-16T05:56:12.117Z,2.78
2023-04-16T05:57:12.118Z,2.85
2023-04-16T05:58:12.105Z,2.88
2023-04-16T05:59:12.275Z,2.92
2023-04-16T06:00:12.098Z,2.96
2023-04-16T06:01:12.102Z,2.97
2023-04-16T06:02:12.295Z,2.86
2023-04-16T06:03:12.236Z,2.96
2023-04-16T06:04:12.243Z,2.97
2023-04-16T06:05:12.137Z,3.05
2023-04-16T06:06:12.115Z,3.02
2023-04-16T06:07:12.111Z,2.96
2023-04-16T06:08:12.087Z,2.95
2023-04-16T06:09:12.245Z,2.95
2023-04-16T06:10:12.117Z,2.95
2023-04-16T06:11:12.150Z,2.89
2023-04-16T06:12:12.230Z,3.01
2023-04-16T06:13:12.250Z,2.94
2023-04-16T06:14:12.357Z,3.00
2023-04-16T06:15:12.363Z,2.95
2023-04-16T06:16:12.346Z,2.88
2023-04-16T06:17:12.340Z,2.89
2023-04-16T06:18:12.407Z,2.91
2023-04-16T06:19:12.455Z,2.95
2023-04-16T06:20:12.420Z,2.91
2023-04-16T06:21:12.458Z,2.99
2023-04-16T06:22:12.479Z,2.96
2023-04-16T06:23:12.509Z,2.89
2023-04-16T06:24:12.548Z,2.83
2023-04-16T06:25:12.595Z,2.83
2023-04-16T06:26:12.603Z,2.84
2023-04-16T06:27:12.639Z,2.81
2023-04-16T06:28:12.658Z,2.80
2023-04-16T06:29:12.669Z,2.83
2023-04-16T06:30:12.692Z,2.80
2023-04-16T06:31:12.755Z,2.82
2023-04-16T06:32:12.732Z,2.78
2023-04-16T06:33:12.784Z,2.76
2023-04-16T06:34:12.778Z,2.79
2023-04-16T06:35:12.811Z,2.76
2023-04-16T06:36:12.825Z,2.73
2023-04-16T06:37:12.845Z,2.73
2023-04-16T06:38:12.880Z,2.75
2023-04-16T06:39:12.896Z,2.78
2023-04-16T06:40:12.932Z,2.81
2023-04-16T06:41:12.934Z,2.77
2023-04-16T06:42:12.960Z,2.68
2023-04-16T06:43:13.026Z,2.67
2023-04-16T06:44:12.997Z,2.75
2023-04-16T06:45:13.051Z,2.70
2023-04-16T06:46:13.056Z,2.62
2023-04-16T06:47:13.078Z,2.60
2023-04-16T06:48:13.101Z,2.57
2023-04-16T06:49:13.113Z,2.45
2023-04-16T06:50:13.128Z,2.47
2023-04-16T06:51:13.157Z,2.46
2023-04-16T06:52:13.183Z,2.46
2023-04-16T06:53:13.217Z,2.41
2023-04-16T06:54:13.228Z,2.43
2023-04-16T06:55:13.234Z,2.43
2023-04-16T06:56:13.233Z,2.42
2023-04-16T06:57:13.216Z,2.40
2023-04-16T06:58:13.231Z,2.43
2023-04-16T06:59:13.223Z,2.39
2023-04-16T07:00:13.254Z,2.32
2023-04-16T07:01:13.261Z,2.31
2023-04-16T07:02:13.382Z,2.33
2023-04-16T07:03:13.359Z,2.39
2023-04-16T07:04:13.255Z,2.39
2023-04-16T07:05:13.216Z,2.29
2023-04-16T07:06:13.206Z,2.29
2023-04-16T07:07:13.217Z,2.27
2023-04-16T07:08:13.195Z,2.24
2023-04-16T07:09:13.205Z,2.22
2023-04-16T07:10:13.239Z,2.19
2023-04-16T07:11:13.282Z,2.15
2023-04-16T07:12:13.300Z,2.19
2023-04-16T07:13:13.339Z,2.22
2023-04-16T07:14:13.339Z,2.19
2023-04-16T07:15:13.439Z,2.20
2023-04-16T07:16:13.453Z,2.12
2023-04-16T07:17:13.422Z,2.12
2023-04-16T07:18:13.487Z,2.12
2023-04-16T07:19:13.460Z,2.07
2023-04-16T07:20:13.490Z,2.06
2023-04-16T07:21:13.501Z,2.08
2023-04-16T07:22:13.531Z,2.05
2023-04-16T07:23:13.562Z,2.08
2023-04-16T07:24:13.581Z,2.05
2023-04-16T07:25:13.607Z,2.02
2023-04-16T07:26:13.643Z,2.00
2023-04-16T07:27:13.641Z,1.97
2023-04-16T07:28:13.679Z,1.90
2023-04-16T07:29:13.707Z,1.93
2023-04-16T07:30:13.740Z,1.89
2023-04-16T07:31:13.711Z,1.88
2023-04-16T07:32:15.296Z,1.87
2023-04-16T07:33:13.718Z,1.78
2023-04-16T07:34:13.719Z,1.75
2023-04-16T07:35:13.702Z,1.66
2023-04-16T07:36:13.689Z,1.63
2023-04-16T07:37:13.691Z,1.57
2023-04-16T07:38:13.689Z,1.54
2023-04-16T07:39:13.669Z,1.60
2023-04-16T07:40:13.691Z,1.55
2023-04-16T07:41:13.672Z,1.58
2023-04-16T07:42:13.674Z,1.58
2023-04-16T07:43:13.669Z,1.54
2023-04-16T07:44:13.683Z,1.51
2023-04-16T07:45:13.671Z,1.49
2023-04-16T07:46:13.821Z,1.48
2023-04-16T07:47:13.670Z,1.51
2023-04-16T07:48:13.665Z,1.50
2023-04-16T07:49:13.666Z,1.49
2023-04-16T07:50:13.671Z,1.52
2023-04-16T07:51:13.707Z,1.52
2023-04-16T07:52:13.728Z,1.54
2023-04-16T07:53:13.720Z,1.52
2023-04-16T07:54:13.763Z,1.52
2023-04-16T07:55:13.759Z,1.46
2023-04-16T07:56:13.790Z,1.43
2023-04-16T07:57:13.808Z,1.40
2023-04-16T07:58:13.847Z,1.42
2023-04-16T07:59:22.812Z,1.42
2023-04-16T08:00:14.898Z,1.42
2023-04-16T08:01:13.836Z,1.40
2023-04-16T08:02:13.918Z,1.38
2023-04-16T08:03:14.020Z,1.33
2023-04-16T08:04:14.039Z,1.38
2023-04-16T08:05:13.881Z,1.35
2023-04-16T08:06:13.835Z,1.36
2023-04-16T08:07:13.822Z,1.33
2023-04-16T08:08:13.824Z,1.39
2023-04-16T08:09:13.843Z,1.36
2023-04-16T08:10:13.818Z,1.35
2023-04-16T08:11:13.820Z,1.37
2023-04-16T08:12:13.814Z,1.33
2023-04-16T08:13:13.820Z,1.35
2023-04-16T08:14:13.822Z,1.34
2023-04-16T08:15:13.820Z,1.34
2023-04-16T08:16:13.863Z,1.35
2023-04-16T08:17:13.873Z,1.36
2023-04-16T08:18:13.903Z,1.35
2023-04-16T08:19:13.920Z,1.35
2023-04-16T08:20:16.906Z,1.34
2023-04-16T08:21:13.914Z,1.34
2023-04-16T08:22:13.910Z,1.35
2023-04-16T08:23:13.915Z,1.33
2023-04-16T08:24:13.913Z,1.36
2023-04-16T08:25:13.905Z,1.35
2023-04-16T08:26:13.917Z,1.39
2023-04-16T08:27:19.305Z,1.39
2023-04-16T08:28:14.905Z,1.39
2023-04-16T08:29:13.905Z,1.38
2023-04-16T08:30:13.906Z,1.40
2023-04-16T08:31:13.926Z,1.35
2023-04-16T08:32:13.890Z,1.38
2023-04-16T08:33:13.930Z,1.37
2023-04-16T08:34:13.895Z,1.37
2023-04-16T08:35:13.886Z,1.39
2023-04-16T08:36:13.897Z,1.36
2023-04-16T08:37:13.912Z,1.39
2023-04-16T08:38:13.894Z,1.37
2023-04-16T08:39:13.925Z,1.34
2023-04-16T08:40:13.898Z,1.37
2023-04-16T08:41:13.869Z,1.31
2023-04-16T08:42:13.864Z,1.30
2023-04-16T08:43:13.879Z,1.29
2023-04-16T08:44:13.876Z,1.26
2023-04-16T08:45:13.882Z,1.27
2023-04-16T08:46:13.929Z,1.27
2023-04-16T08:47:13.914Z,1.25
2023-04-16T08:48:13.934Z,1.26
2023-04-16T08:49:13.945Z,1.27
2023-04-16T08:50:13.967Z,1.24
2023-04-16T08:51:13.988Z,1.22
2023-04-16T08:52:14.003Z,1.22
2023-04-16T08:53:14.030Z,1.24
2023-04-16T08:54:14.066Z,1.23
2023-04-16T08:55:14.087Z,1.25
2023-04-16T08:56:14.098Z,1.22
2023-04-16T08:57:14.114Z,1.22
2023-04-16T08:58:14.124Z,1.19
2023-04-16T08:59:14.137Z,1.19
2023-04-16T09:00:14.180Z,1.18
2023-04-16T09:01:14.188Z,1.22
2023-04-16T09:02:14.241Z,1.18
2023-04-16T09:03:14.401Z,1.18
2023-04-16T09:04:14.494Z,1.17
2023-04-16T09:05:14.297Z,1.18
2023-04-16T09:06:14.346Z,1.18
2023-04-16T09:07:14.390Z,1.18
2023-04-16T09:08:14.446Z,1.21
2023-04-16T09:09:14.509Z,1.20
2023-04-16T09:10:14.542Z,1.12
2023-04-16T09:11:14.590Z,1.10
2023-04-16T09:12:14.605Z,1.09
2023-04-16T09:13:14.625Z,1.04
2023-04-16T09:14:14.645Z,1.07
2023-04-16T09:15:14.668Z,1.08
2023-04-16T09:16:14.754Z,1.13
2023-04-16T09:17:14.684Z,1.12
2023-04-16T09:18:14.711Z,1.14
2023-04-16T09:19:14.724Z,1.14
2023-04-16T09:20:14.737Z,1.14
2023-04-16T09:21:14.768Z,1.15
2023-04-16T09:22:14.778Z,1.15
2023-04-16T09:23:14.783Z,1.16
2023-04-16T09:24:14.804Z,1.07
2023-04-16T09:25:14.830Z,1.09
2023-04-16T09:26:14.840Z,1.11
2023-04-16T09:27:14.886Z,1.11
2023-04-16T09:28:14.961Z,1.14
2023-04-16T09:29:14.929Z,1.15
2023-04-16T09:30:14.956Z,1.16
2023-04-16T09:31:14.986Z,1.17
2023-04-16T09:32:15.098Z,1.17
2023-04-16T09:33:14.937Z,1.17
2023-04-16T09:34:15.009Z,1.09
2023-04-16T09:35:14.958Z,1.11
2023-04-16T09:36:15.043Z,1.12
2023-04-16T09:37:15.012Z,1.15
2023-04-16T09:38:15.013Z,1.09
2023-04-16T09:39:15.051Z,1.06
2023-04-16T09:40:15.048Z,1.05
2023-04-16T09:41:15.066Z,1.00
2023-04-16T09:42:15.101Z,0.97
2023-04-16T09:43:15.119Z,0.99
2023-04-16T09:44:15.098Z,0.99
2023-04-16T09:45:15.192Z,1.03
2023-04-16T09:46:15.336Z,0.97
2023-04-16T09:47:15.263Z,0.94
2023-04-16T09:48:15.180Z,0.99
2023-04-16T09:49:15.222Z,1.01
2023-04-16T09:50:17.283Z,1.01
2023-04-16T09:51:15.251Z,1.01
2023-04-16T09:52:15.642Z,1.11
2023-04-16T09:53:15.212Z,1.09
2023-04-16T09:54:15.302Z,1.11
2023-04-16T09:55:15.251Z,1.10
2023-04-16T09:56:15.236Z,1.04
2023-04-16T09:57:15.252Z,1.10
2023-04-16T09:58:15.166Z,1.11
2023-04-16T09:59:15.206Z,1.11
2023-04-16T10:00:15.152Z,1.10
2023-04-16T10:01:15.319Z,1.11
2023-04-16T10:02:16.380Z,1.19
2023-04-16T10:03:15.163Z,1.20
2023-04-16T10:04:15.200Z,1.24
2023-04-16T10:05:15.132Z,1.24
2023-04-16T10:06:15.105Z,1.26
2023-04-16T10:07:15.115Z,1.26
2023-04-16T10:08:15.031Z,1.32
2023-04-16T10:09:15.048Z,1.31
2023-04-16T10:10:15.012Z,1.33
2023-04-16T10:11:15.008Z,1.34
2023-04-16T10:12:15.002Z,1.32
2023-04-16T10:13:14.980Z,1.41
2023-04-16T10:14:14.973Z,1.42
2023-04-16T10:15:15.010Z,1.39
2023-04-16T10:16:15.013Z,1.34
2023-04-16T10:17:14.958Z,1.40
2023-04-16T10:18:14.969Z,1.48
2023-04-16T10:19:14.978Z,1.53
2023-04-16T10:20:16.737Z,1.54
2023-04-16T10:21:14.960Z,1.54
2023-04-16T10:22:14.965Z,1.56
2023-04-16T10:23:14.951Z,1.60
2023-04-16T10:24:14.959Z,1.64
2023-04-16T10:25:15.013Z,1.74
2023-04-16T10:26:15.024Z,1.91
2023-04-16T10:27:14.985Z,1.97
2023-04-16T10:28:14.932Z,1.91
2023-04-16T10:29:14.970Z,1.93
2023-04-16T10:30:15.005Z,2.09
2023-04-16T10:31:14.889Z,2.16
2023-04-16T10:32:14.929Z,2.37
2023-04-16T10:33:14.894Z,2.09
2023-04-16T10:34:14.855Z,2.07
2023-04-16T10:35:14.834Z,2.17
2023-04-16T10:36:14.849Z,2.03
2023-04-16T10:37:14.831Z,2.05
2023-04-16T10:38:14.817Z,2.12
2023-04-16T10:39:17.003Z,1.99
2023-04-16T10:40:14.918Z,1.89
2023-04-16T10:41:14.924Z,2.03
2023-04-16T10:42:14.948Z,2.06
2023-04-16T10:43:14.875Z,1.95
2023-04-16T10:44:15.015Z,1.85
2023-04-16T10:45:14.925Z,1.91
2023-04-16T10:46:14.915Z,1.89
2023-04-16T10:47:14.950Z,1.81
2023-04-16T10:48:14.884Z,1.82
2023-04-16T10:49:14.876Z,1.71
2023-04-16T10:50:14.844Z,1.81
2023-04-16T10:51:14.826Z,1.75
2023-04-16T10:52:14.888Z,1.63
2023-04-16T10:53:14.812Z,1.61
2023-04-16T10:54:14.819Z,1.54
2023-04-16T10:55:14.800Z,1.54
2023-04-16T10:56:14.803Z,1.44
2023-04-16T10:57:14.818Z,1.42
2023-04-16T10:58:14.800Z,1.46
2023-04-16T10:59:14.767Z,1.48
2023-04-16T11:00:14.769Z,1.45
2023-04-16T11:01:14.843Z,1.44
2023-04-16T11:02:14.865Z,1.37
2023-04-16T11:03:14.857Z,1.43
2023-04-16T11:04:14.827Z,1.54
2023-04-16T11:05:14.712Z,1.51
2023-04-16T11:06:14.728Z,1.57
2023-04-16T11:07:14.718Z,1.51
2023-04-16T11:08:14.696Z,1.42
2023-04-16T11:09:14.689Z,1.41
2023-04-16T11:10:14.672Z,1.58
2023-04-16T11:11:14.652Z,1.50
2023-04-16T11:12:14.656Z,1.56
2023-04-16T11:13:14.637Z,1.59
2023-04-16T11:14:14.634Z,1.56
2023-04-16T11:15:14.627Z,1.49
2023-04-16T11:16:14.703Z,1.49
2023-04-16T11:17:14.602Z,1.52
2023-04-16T11:18:14.603Z,1.42
2023-04-16T11:19:14.598Z,1.43
2023-04-16T11:20:18.987Z,1.43
2023-04-16T11:21:15.588Z,1.43
2023-04-16T11:22:14.571Z,1.41
2023-04-16T11:23:14.573Z,1.44
2023-04-16T11:24:14.563Z,1.42
2023-04-16T11:25:14.535Z,1.42
2023-04-16T11:26:14.517Z,1.39
2023-04-16T11:27:14.512Z,1.41
2023-04-16T11:28:14.506Z,1.40
2023-04-16T11:29:14.477Z,1.41
2023-04-16T11:30:14.534Z,1.43
2023-04-16T11:31:14.498Z,1.36
2023-04-16T11:32:14.504Z,1.39
2023-04-16T11:33:14.497Z,1.43
2023-04-16T11:34:14.453Z,1.44
2023-04-16T11:35:14.453Z,1.41
2023-04-16T11:36:14.438Z,1.41
2023-04-16T11:37:14.484Z,1.36
2023-04-16T11:38:14.457Z,1.38
2023-04-16T11:39:14.432Z,1.38
2023-04-16T11:40:14.423Z,1.39
2023-04-16T11:41:14.394Z,1.40
2023-04-16T11:42:14.446Z,1.43
2023-04-16T11:43:14.457Z,1.47
2023-04-16T11:44:14.460Z,1.46
2023-04-16T11:45:14.483Z,1.47
2023-04-16T11:46:26.871Z,1.50
2023-04-16T11:47:15.501Z,1.51
2023-04-16T11:48:14.512Z,1.50
2023-04-16T11:49:14.447Z,1.49
2023-04-16T11:50:14.455Z,1.50
2023-04-16T11:51:14.466Z,1.49
2023-04-16T11:52:14.440Z,1.41
2023-04-16T11:53:14.426Z,1.42
2023-04-16T11:54:14.410Z,1.45
2023-04-16T11:55:14.433Z,1.39
2023-04-16T11:56:14.409Z,1.38
2023-04-16T11:57:14.412Z,1.33
2023-04-16T11:58:14.414Z,1.29
2023-04-16T11:59:14.672Z,1.32
2023-04-16T12:00:14.363Z,1.32
2023-04-16T12:01:14.353Z,1.32
2023-04-16T12:02:14.390Z,1.29
2023-04-16T12:03:14.596Z,1.24
2023-04-16T12:04:14.489Z,1.20
2023-04-16T12:05:14.385Z,1.17
2023-04-16T12:06:14.280Z,1.15
2023-04-16T12:07:14.271Z,1.07
2023-04-16T12:08:14.278Z,1.07
2023-04-16T12:09:14.269Z,1.03
2023-04-16T12:10:14.279Z,1.02
2023-04-16T12:11:14.257Z,1.00
2023-04-16T12:12:14.249Z,1.00
2023-04-16T12:13:14.251Z,1.02
2023-04-16T12:14:14.241Z,1.02
2023-04-16T12:15:14.233Z,0.98
2023-04-16T12:16:14.305Z,0.95
2023-04-16T12:17:14.245Z,0.92
2023-04-16T12:18:14.223Z,0.90
2023-04-16T12:19:14.225Z,0.88
2023-04-16T12:20:14.224Z,0.88
2023-04-16T12:21:14.216Z,0.88
2023-04-16T12:22:14.209Z,0.90
2023-04-16T12:23:14.232Z,0.89
2023-04-16T12:24:14.202Z,0.88
2023-04-16T12:25:14.214Z,0.90
2023-04-16T12:26:14.213Z,0.90
2023-04-16T12:27:14.195Z,0.90
2023-04-16T12:28:14.190Z,0.90
2023-04-16T12:29:14.194Z,0.90
2023-04-16T12:30:14.184Z,0.89
2023-04-16T12:31:14.214Z,0.91
2023-04-16T12:32:14.180Z,0.92
2023-04-16T12:33:14.176Z,0.93
2023-04-16T12:34:14.195Z,0.91
2023-04-16T12:35:14.171Z,0.93
2023-04-16T12:36:14.153Z,0.93
2023-04-16T12:37:14.148Z,0.93
2023-04-16T12:38:14.166Z,0.95
2023-04-16T12:39:14.147Z,0.96
2023-04-16T12:40:14.144Z,0.95
2023-04-16T12:41:14.172Z,0.97
2023-04-16T12:42:14.126Z,0.96
2023-04-16T12:43:14.146Z,0.97
2023-04-16T12:44:14.120Z,0.96
2023-04-16T12:45:14.120Z,0.95
2023-04-16T12:46:14.136Z,0.93
2023-04-16T12:47:14.122Z,0.94
2023-04-16T12:48:14.113Z,0.95
2023-04-16T12:49:14.110Z,0.93
2023-04-16T12:50:14.092Z,0.91
2023-04-16T12:51:14.117Z,0.92
2023-04-16T12:52:14.114Z,0.90
2023-04-16T12:53:14.109Z,0.88
2023-04-16T12:54:14.088Z,0.89
2023-04-16T12:55:14.153Z,0.88
2023-04-16T12:56:14.124Z,0.88
2023-04-16T12:57:14.074Z,0.85
2023-04-16T12:58:14.094Z,0.85
2023-04-16T12:59:14.065Z,0.84
2023-04-16T13:00:14.070Z,0.84
2023-04-16T13:01:14.047Z,0.82
2023-04-16T13:02:14.141Z,0.83
2023-04-16T13:03:14.236Z,0.82
2023-04-16T13:04:14.225Z,0.81
2023-04-16T13:05:14.017Z,0.80
2023-04-16T13:06:14.025Z,0.80
2023-04-16T13:07:14.025Z,0.79
2023-04-16T13:08:14.031Z,0.79
2023-04-16T13:09:14.030Z,0.78
2023-04-16T13:10:14.074Z,0.79
2023-04-16T13:11:14.036Z,0.79
2023-04-16T13:12:14.068Z,0.77
2023-04-16T13:13:14.028Z,0.78
2023-04-16T13:14:14.034Z,0.77
2023-04-16T13:15:14.051Z,0.77
2023-04-16T13:16:14.095Z,0.79
2023-04-16T13:17:14.074Z,0.78
2023-04-16T13:18:14.073Z,0.79